sensor_id;sensor_type;location;lat;lon;timestamp;P1;durP1;ratioP1;P2;durP2;ratioP2
21645;SDS011;10984;45.712;4.800;2022-10-28T00:01:10;12.00;;;4.43;;
21645;SDS011;10984;45.712;4.800;2022-10-28T00:03:55;8.57;;;4.22;;
21645;SDS011;10984;45.712;4.800;2022-10-28T00:09:06;9.90;;;4.00;;
21645;SDS011;10984;45.712;4.800;2022-10-28T00:11:32;13.60;;;4.43;;
21645;SDS011;10984;45.712;4.800;2022-10-28T00:13:59;10.77;;;4.80;;
21645;SDS011;10984;45.712;4.800;2022-10-28T00:16:28;9.75;;;4.18;;
21645;SDS011;10984;45.712;4.800;2022-10-28T00:18:56;11.00;;;4.00;;
21645;SDS011;10984;45.712;4.800;2022-10-28T00:21:24;6.75;;;4.13;;
21645;SDS011;10984;45.712;4.800;2022-10-28T00:24:10;9.25;;;3.78;;
21645;SDS011;10984;45.712;4.800;2022-10-28T00:26:37;16.38;;;4.53;;
21645;SDS011;10984;45.712;4.800;2022-10-28T00:29:10;11.82;;;3.78;;
21645;SDS011;10984;45.712;4.800;2022-10-28T00:31:39;11.20;;;4.18;;
21645;SDS011;10984;45.712;4.800;2022-10-28T00:34:07;9.90;;;4.10;;
21645;SDS011;10984;45.712;4.800;2022-10-28T00:36:36;15.45;;;4.05;;
21645;SDS011;10984;45.712;4.800;2022-10-28T00:39:06;9.43;;;4.13;;
21645;SDS011;10984;45.712;4.800;2022-10-28T00:41:38;9.77;;;3.70;;
21645;SDS011;10984;45.712;4.800;2022-10-28T00:53:20;8.13;;;4.53;;
21645;SDS011;10984;45.712;4.800;2022-10-28T00:55:48;12.57;;;4.32;;
21645;SDS011;10984;45.712;4.800;2022-10-28T00:58:15;11.88;;;5.00;;
21645;SDS011;10984;45.712;4.800;2022-10-28T01:00:42;11.43;;;4.55;;
21645;SDS011;10984;45.712;4.800;2022-10-28T01:03:08;10.65;;;4.32;;
21645;SDS011;10984;45.712;4.800;2022-10-28T01:05:35;14.73;;;4.68;;
21645;SDS011;10984;45.712;4.800;2022-10-28T01:08:03;30.95;;;5.85;;
21645;SDS011;10984;45.712;4.800;2022-10-28T01:16:06;11.85;;;4.60;;
21645;SDS011;10984;45.712;4.800;2022-10-28T01:18:58;7.35;;;4.20;;
21645;SDS011;10984;45.712;4.800;2022-10-28T01:30:40;13.43;;;4.80;;
21645;SDS011;10984;45.712;4.800;2022-10-28T01:36:33;17.50;;;4.90;;
21645;SDS011;10984;45.712;4.800;2022-10-28T01:39:25;9.95;;;4.63;;
21645;SDS011;10984;45.712;4.800;2022-10-28T01:53:30;13.38;;;5.07;;
21645;SDS011;10984;45.712;4.800;2022-10-28T01:56:01;11.18;;;5.00;;
21645;SDS011;10984;45.712;4.800;2022-10-28T01:58:31;15.77;;;5.05;;
21645;SDS011;10984;45.712;4.800;2022-10-28T02:00:58;16.90;;;4.88;;
21645;SDS011;10984;45.712;4.800;2022-10-28T02:03:26;15.88;;;4.10;;
21645;SDS011;10984;45.712;4.800;2022-10-28T02:05:53;8.32;;;4.30;;
21645;SDS011;10984;45.712;4.800;2022-10-28T02:08:22;13.02;;;4.85;;
21645;SDS011;10984;45.712;4.800;2022-10-28T02:33:47;12.35;;;4.63;;
21645;SDS011;10984;45.712;4.800;2022-10-28T02:36:17;13.05;;;4.45;;
21645;SDS011;10984;45.712;4.800;2022-10-28T02:38:47;11.65;;;4.78;;
21645;SDS011;10984;45.712;4.800;2022-10-28T02:43:43;13.65;;;5.55;;
21645;SDS011;10984;45.712;4.800;2022-10-28T02:46:09;14.60;;;5.80;;
21645;SDS011;10984;45.712;4.800;2022-10-28T02:48:39;14.57;;;4.45;;
21645;SDS011;10984;45.712;4.800;2022-10-28T02:51:10;9.25;;;5.10;;
21645;SDS011;10984;45.712;4.800;2022-10-28T02:56:29;12.52;;;4.65;;
21645;SDS011;10984;45.712;4.800;2022-10-28T02:58:58;11.93;;;4.40;;
21645;SDS011;10984;45.712;4.800;2022-10-28T03:01:24;10.57;;;4.75;;
21645;SDS011;10984;45.712;4.800;2022-10-28T03:03:50;13.45;;;5.20;;
21645;SDS011;10984;45.712;4.800;2022-10-28T03:06:16;10.48;;;5.40;;
21645;SDS011;10984;45.712;4.800;2022-10-28T03:08:42;12.85;;;5.18;;
21645;SDS011;10984;45.712;4.800;2022-10-28T03:11:07;11.68;;;5.13;;
21645;SDS011;10984;45.712;4.800;2022-10-28T03:13:33;12.18;;;4.88;;
21645;SDS011;10984;45.712;4.800;2022-10-28T03:15:58;11.15;;;4.47;;
21645;SDS011;10984;45.712;4.800;2022-10-28T03:18:24;7.28;;;4.55;;
21645;SDS011;10984;45.712;4.800;2022-10-28T03:20:50;11.10;;;4.72;;
21645;SDS011;10984;45.712;4.800;2022-10-28T03:23:16;17.45;;;5.63;;
21645;SDS011;10984;45.712;4.800;2022-10-28T03:25:41;12.75;;;5.50;;
21645;SDS011;10984;45.712;4.800;2022-10-28T03:28:07;14.10;;;4.63;;
21645;SDS011;10984;45.712;4.800;2022-10-28T03:30:33;9.93;;;4.40;;
21645;SDS011;10984;45.712;4.800;2022-10-28T03:32:58;18.65;;;4.78;;
21645;SDS011;10984;45.712;4.800;2022-10-28T03:35:24;11.13;;;4.28;;
21645;SDS011;10984;45.712;4.800;2022-10-28T03:37:49;11.75;;;4.45;;
21645;SDS011;10984;45.712;4.800;2022-10-28T03:40:15;11.05;;;4.50;;
21645;SDS011;10984;45.712;4.800;2022-10-28T03:42:41;13.80;;;4.03;;
21645;SDS011;10984;45.712;4.800;2022-10-28T03:45:07;11.50;;;4.57;;
21645;SDS011;10984;45.712;4.800;2022-10-28T03:47:33;8.50;;;4.47;;
21645;SDS011;10984;45.712;4.800;2022-10-28T03:49:59;7.45;;;4.22;;
21645;SDS011;10984;45.712;4.800;2022-10-28T03:52:25;13.95;;;4.50;;
21645;SDS011;10984;45.712;4.800;2022-10-28T03:54:51;8.15;;;4.28;;
21645;SDS011;10984;45.712;4.800;2022-10-28T03:57:16;15.50;;;4.55;;
21645;SDS011;10984;45.712;4.800;2022-10-28T03:59:42;9.35;;;4.72;;
21645;SDS011;10984;45.712;4.800;2022-10-28T04:02:08;10.95;;;4.03;;
21645;SDS011;10984;45.712;4.800;2022-10-28T04:04:33;11.65;;;4.35;;
21645;SDS011;10984;45.712;4.800;2022-10-28T04:06:59;15.60;;;4.82;;
21645;SDS011;10984;45.712;4.800;2022-10-28T04:09:25;10.50;;;4.65;;
21645;SDS011;10984;45.712;4.800;2022-10-28T04:11:50;12.45;;;4.47;;
21645;SDS011;10984;45.712;4.800;2022-10-28T04:14:16;13.05;;;4.72;;
21645;SDS011;10984;45.712;4.800;2022-10-28T04:16:41;8.48;;;4.25;;
21645;SDS011;10984;45.712;4.800;2022-10-28T04:19:07;14.00;;;4.55;;
21645;SDS011;10984;45.712;4.800;2022-10-28T04:21:33;21.23;;;5.18;;
21645;SDS011;10984;45.712;4.800;2022-10-28T04:23:58;9.75;;;4.95;;
21645;SDS011;10984;45.712;4.800;2022-10-28T04:26:24;8.68;;;4.38;;
21645;SDS011;10984;45.712;4.800;2022-10-28T04:28:50;19.25;;;5.07;;
21645;SDS011;10984;45.712;4.800;2022-10-28T04:31:15;13.95;;;4.90;;
21645;SDS011;10984;45.712;4.800;2022-10-28T04:33:41;9.00;;;4.35;;
21645;SDS011;10984;45.712;4.800;2022-10-28T04:36:07;10.98;;;4.30;;
21645;SDS011;10984;45.712;4.800;2022-10-28T04:38:33;13.25;;;4.88;;
21645;SDS011;10984;45.712;4.800;2022-10-28T04:40:58;11.15;;;5.25;;
21645;SDS011;10984;45.712;4.800;2022-10-28T04:43:24;10.23;;;4.18;;
21645;SDS011;10984;45.712;4.800;2022-10-28T04:45:50;12.80;;;4.40;;
21645;SDS011;10984;45.712;4.800;2022-10-28T04:48:16;12.70;;;5.28;;
21645;SDS011;10984;45.712;4.800;2022-10-28T04:50:42;12.73;;;5.55;;
21645;SDS011;10984;45.712;4.800;2022-10-28T04:53:09;13.27;;;5.25;;
21645;SDS011;10984;45.712;4.800;2022-10-28T04:55:35;13.38;;;4.72;;
21645;SDS011;10984;45.712;4.800;2022-10-28T04:58:01;11.63;;;4.03;;
21645;SDS011;10984;45.712;4.800;2022-10-28T05:00:27;14.95;;;4.90;;
21645;SDS011;10984;45.712;4.800;2022-10-28T05:02:53;11.52;;;4.20;;
21645;SDS011;10984;45.712;4.800;2022-10-28T05:05:19;10.60;;;4.80;;
21645;SDS011;10984;45.712;4.800;2022-10-28T05:07:45;10.45;;;4.20;;
21645;SDS011;10984;45.712;4.800;2022-10-28T05:10:11;11.48;;;4.38;;
21645;SDS011;10984;45.712;4.800;2022-10-28T05:15:23;9.00;;;4.40;;
21645;SDS011;10984;45.712;4.800;2022-10-28T05:17:51;12.63;;;4.00;;
21645;SDS011;10984;45.712;4.800;2022-10-28T05:20:17;9.50;;;4.57;;
21645;SDS011;10984;45.712;4.800;2022-10-28T05:22:44;10.68;;;4.05;;
21645;SDS011;10984;45.712;4.800;2022-10-28T05:25:11;13.52;;;5.03;;
21645;SDS011;10984;45.712;4.800;2022-10-28T05:27:37;15.80;;;3.88;;
21645;SDS011;10984;45.712;4.800;2022-10-28T05:30:03;10.80;;;4.20;;
21645;SDS011;10984;45.712;4.800;2022-10-28T05:32:29;12.85;;;4.70;;
21645;SDS011;10984;45.712;4.800;2022-10-28T05:34:55;13.60;;;4.05;;
21645;SDS011;10984;45.712;4.800;2022-10-28T05:37:20;15.32;;;5.13;;
21645;SDS011;10984;45.712;4.800;2022-10-28T05:39:46;14.40;;;5.15;;
21645;SDS011;10984;45.712;4.800;2022-10-28T05:42:12;9.88;;;4.22;;
21645;SDS011;10984;45.712;4.800;2022-10-28T05:44:37;11.70;;;4.05;;
21645;SDS011;10984;45.712;4.800;2022-10-28T05:47:03;10.63;;;4.07;;
21645;SDS011;10984;45.712;4.800;2022-10-28T05:49:28;15.77;;;4.32;;
21645;SDS011;10984;45.712;4.800;2022-10-28T05:51:54;10.32;;;4.55;;
21645;SDS011;10984;45.712;4.800;2022-10-28T05:54:20;7.47;;;4.10;;
21645;SDS011;10984;45.712;4.800;2022-10-28T05:56:45;12.80;;;4.18;;
21645;SDS011;10984;45.712;4.800;2022-10-28T05:59:11;12.50;;;4.05;;
21645;SDS011;10984;45.712;4.800;2022-10-28T06:01:37;8.27;;;3.97;;
21645;SDS011;10984;45.712;4.800;2022-10-28T06:04:03;10.90;;;4.40;;
21645;SDS011;10984;45.712;4.800;2022-10-28T06:06:30;15.95;;;4.40;;
21645;SDS011;10984;45.712;4.800;2022-10-28T06:08:56;15.07;;;4.97;;
21645;SDS011;10984;45.712;4.800;2022-10-28T06:11:22;8.77;;;4.28;;
21645;SDS011;10984;45.712;4.800;2022-10-28T06:13:47;9.60;;;4.30;;
21645;SDS011;10984;45.712;4.800;2022-10-28T06:16:13;9.18;;;4.07;;
21645;SDS011;10984;45.712;4.800;2022-10-28T06:18:39;13.40;;;5.10;;
21645;SDS011;10984;45.712;4.800;2022-10-28T06:21:04;11.52;;;4.15;;
21645;SDS011;10984;45.712;4.800;2022-10-28T06:23:30;9.63;;;4.63;;
21645;SDS011;10984;45.712;4.800;2022-10-28T06:25:56;11.23;;;4.57;;
21645;SDS011;10984;45.712;4.800;2022-10-28T06:28:23;7.90;;;4.68;;
21645;SDS011;10984;45.712;4.800;2022-10-28T06:30:49;16.30;;;5.40;;
21645;SDS011;10984;45.712;4.800;2022-10-28T06:33:15;11.13;;;5.63;;
21645;SDS011;10984;45.712;4.800;2022-10-28T06:35:41;9.82;;;4.47;;
21645;SDS011;10984;45.712;4.800;2022-10-28T06:38:06;22.60;;;5.40;;
21645;SDS011;10984;45.712;4.800;2022-10-28T06:40:32;11.05;;;4.65;;
21645;SDS011;10984;45.712;4.800;2022-10-28T06:45:25;14.75;;;5.03;;
21645;SDS011;10984;45.712;4.800;2022-10-28T06:50:39;10.73;;;4.30;;
21645;SDS011;10984;45.712;4.800;2022-10-28T06:53:05;11.73;;;4.63;;
21645;SDS011;10984;45.712;4.800;2022-10-28T06:55:30;14.20;;;4.80;;
21645;SDS011;10984;45.712;4.800;2022-10-28T07:00:40;14.35;;;5.25;;
21645;SDS011;10984;45.712;4.800;2022-10-28T07:03:07;13.13;;;5.22;;
21645;SDS011;10984;45.712;4.800;2022-10-28T07:05:33;9.75;;;4.88;;
21645;SDS011;10984;45.712;4.800;2022-10-28T07:07:59;11.93;;;4.72;;
21645;SDS011;10984;45.712;4.800;2022-10-28T07:10:25;12.23;;;5.20;;
21645;SDS011;10984;45.712;4.800;2022-10-28T07:12:51;12.88;;;4.82;;
21645;SDS011;10984;45.712;4.800;2022-10-28T07:15:17;11.27;;;5.00;;
21645;SDS011;10984;45.712;4.800;2022-10-28T07:17:42;11.25;;;4.93;;
21645;SDS011;10984;45.712;4.800;2022-10-28T07:20:08;9.43;;;4.43;;
21645;SDS011;10984;45.712;4.800;2022-10-28T07:22:34;13.95;;;5.15;;
21645;SDS011;10984;45.712;4.800;2022-10-28T07:25:00;13.35;;;4.88;;
21645;SDS011;10984;45.712;4.800;2022-10-28T07:27:26;15.55;;;4.80;;
21645;SDS011;10984;45.712;4.800;2022-10-28T07:29:51;12.25;;;4.57;;
21645;SDS011;10984;45.712;4.800;2022-10-28T07:32:17;17.38;;;5.55;;
21645;SDS011;10984;45.712;4.800;2022-10-28T07:34:42;14.02;;;5.53;;
21645;SDS011;10984;45.712;4.800;2022-10-28T07:37:08;12.20;;;4.82;;
21645;SDS011;10984;45.712;4.800;2022-10-28T07:39:36;13.95;;;5.13;;
21645;SDS011;10984;45.712;4.800;2022-10-28T07:42:02;11.27;;;4.90;;
21645;SDS011;10984;45.712;4.800;2022-10-28T07:44:28;15.30;;;6.05;;
21645;SDS011;10984;45.712;4.800;2022-10-28T07:46:53;12.00;;;4.38;;
21645;SDS011;10984;45.712;4.800;2022-10-28T07:49:19;12.13;;;4.40;;
21645;SDS011;10984;45.712;4.800;2022-10-28T07:51:45;17.63;;;4.75;;
21645;SDS011;10984;45.712;4.800;2022-10-28T07:54:11;16.48;;;5.38;;
21645;SDS011;10984;45.712;4.800;2022-10-28T07:56:37;11.48;;;4.50;;
21645;SDS011;10984;45.712;4.800;2022-10-28T07:59:02;12.60;;;4.38;;
21645;SDS011;10984;45.712;4.800;2022-10-28T08:01:28;9.65;;;4.15;;
21645;SDS011;10984;45.712;4.800;2022-10-28T08:03:54;8.45;;;3.67;;
21645;SDS011;10984;45.712;4.800;2022-10-28T08:06:20;10.00;;;4.28;;
21645;SDS011;10984;45.712;4.800;2022-10-28T08:08:46;10.75;;;4.82;;
21645;SDS011;10984;45.712;4.800;2022-10-28T08:11:13;25.88;;;4.85;;
21645;SDS011;10984;45.712;4.800;2022-10-28T08:13:41;18.65;;;4.60;;
21645;SDS011;10984;45.712;4.800;2022-10-28T08:16:07;10.82;;;3.83;;
21645;SDS011;10984;45.712;4.800;2022-10-28T08:18:34;12.77;;;3.72;;
21645;SDS011;10984;45.712;4.800;2022-10-28T08:21:01;7.80;;;3.70;;
21645;SDS011;10984;45.712;4.800;2022-10-28T08:23:28;14.68;;;3.25;;
21645;SDS011;10984;45.712;4.800;2022-10-28T08:25:54;9.68;;;3.47;;
21645;SDS011;10984;45.712;4.800;2022-10-28T08:28:19;8.85;;;3.53;;
21645;SDS011;10984;45.712;4.800;2022-10-28T08:30:46;16.00;;;3.55;;
21645;SDS011;10984;45.712;4.800;2022-10-28T08:33:12;22.63;;;3.83;;
21645;SDS011;10984;45.712;4.800;2022-10-28T08:35:38;15.25;;;4.00;;
21645;SDS011;10984;45.712;4.800;2022-10-28T08:38:04;12.07;;;3.83;;
21645;SDS011;10984;45.712;4.800;2022-10-28T08:46:43;15.63;;;3.65;;
21645;SDS011;10984;45.712;4.800;2022-10-28T08:49:31;11.82;;;3.55;;
21645;SDS011;10984;45.712;4.800;2022-10-28T08:52:01;13.77;;;3.53;;
21645;SDS011;10984;45.712;4.800;2022-10-28T08:54:36;10.27;;;4.22;;
21645;SDS011;10984;45.712;4.800;2022-10-28T08:57:11;8.50;;;2.72;;
21645;SDS011;10984;45.712;4.800;2022-10-28T08:59:58;13.07;;;3.47;;
21645;SDS011;10984;45.712;4.800;2022-10-28T09:02:27;11.38;;;3.13;;
21645;SDS011;10984;45.712;4.800;2022-10-28T09:07:46;8.90;;;3.58;;
21645;SDS011;10984;45.712;4.800;2022-10-28T09:10:13;11.82;;;4.15;;
21645;SDS011;10984;45.712;4.800;2022-10-28T09:21:10;10.73;;;3.40;;
21645;SDS011;10984;45.712;4.800;2022-10-28T09:23:44;10.13;;;3.63;;
21645;SDS011;10984;45.712;4.800;2022-10-28T09:40:14;17.83;;;3.72;;
21645;SDS011;10984;45.712;4.800;2022-10-28T09:42:46;11.55;;;3.30;;
21645;SDS011;10984;45.712;4.800;2022-10-28T09:45:27;11.57;;;3.88;;
21645;SDS011;10984;45.712;4.800;2022-10-28T09:47:57;10.85;;;4.32;;
21645;SDS011;10984;45.712;4.800;2022-10-28T09:50:42;12.00;;;4.45;;
21645;SDS011;10984;45.712;4.800;2022-10-28T09:55:53;16.38;;;6.07;;
21645;SDS011;10984;45.712;4.800;2022-10-28T09:58:20;19.45;;;5.47;;
21645;SDS011;10984;45.712;4.800;2022-10-28T10:00:46;18.00;;;5.65;;
21645;SDS011;10984;45.712;4.800;2022-10-28T10:03:13;14.43;;;6.30;;
21645;SDS011;10984;45.712;4.800;2022-10-28T10:05:41;20.70;;;8.07;;
21645;SDS011;10984;45.712;4.800;2022-10-28T10:10:58;14.70;;;6.78;;
21645;SDS011;10984;45.712;4.800;2022-10-28T10:13:31;17.58;;;4.93;;
21645;SDS011;10984;45.712;4.800;2022-10-28T10:18:52;12.55;;;4.10;;
21645;SDS011;10984;45.712;4.800;2022-10-28T10:29:55;11.63;;;4.20;;
21645;SDS011;10984;45.712;4.800;2022-10-28T10:38:13;16.60;;;4.00;;
21645;SDS011;10984;45.712;4.800;2022-10-28T10:40:46;14.32;;;4.03;;
21645;SDS011;10984;45.712;4.800;2022-10-28T10:48:26;9.80;;;3.17;;
21645;SDS011;10984;45.712;4.800;2022-10-28T10:51:16;10.65;;;3.58;;
21645;SDS011;10984;45.712;4.800;2022-10-28T10:54:01;7.45;;;3.22;;
21645;SDS011;10984;45.712;4.800;2022-10-28T10:56:28;9.75;;;3.70;;
21645;SDS011;10984;45.712;4.800;2022-10-28T11:01:47;11.98;;;3.97;;
21645;SDS011;10984;45.712;4.800;2022-10-28T11:07:00;11.35;;;3.28;;
21645;SDS011;10984;45.712;4.800;2022-10-28T11:15:21;8.98;;;3.22;;
21645;SDS011;10984;45.712;4.800;2022-10-28T11:29:49;13.77;;;3.10;;
21645;SDS011;10984;45.712;4.800;2022-10-28T12:18:49;12.85;;;2.88;;
21645;SDS011;10984;45.712;4.800;2022-10-28T12:24:19;13.82;;;3.17;;
21645;SDS011;10984;45.712;4.800;2022-10-28T12:26:49;12.00;;;3.78;;
21645;SDS011;10984;45.712;4.800;2022-10-28T12:56:01;8.07;;;3.15;;
21645;SDS011;10984;45.712;4.800;2022-10-28T13:01:19;11.15;;;2.38;;
21645;SDS011;10984;45.712;4.800;2022-10-28T13:03:48;7.30;;;2.92;;
21645;SDS011;10984;45.712;4.800;2022-10-28T13:18:09;12.57;;;2.90;;
21645;SDS011;10984;45.712;4.800;2022-10-28T13:27:04;7.22;;;2.78;;
21645;SDS011;10984;45.712;4.800;2022-10-28T13:29:34;8.27;;;2.58;;
21645;SDS011;10984;45.712;4.800;2022-10-28T13:32:01;6.45;;;2.70;;
21645;SDS011;10984;45.712;4.800;2022-10-28T13:37:17;8.65;;;3.03;;
21645;SDS011;10984;45.712;4.800;2022-10-28T13:39:46;11.15;;;2.42;;
21645;SDS011;10984;45.712;4.800;2022-10-28T13:50:12;15.40;;;3.95;;
21645;SDS011;10984;45.712;4.800;2022-10-28T13:55:43;9.57;;;3.13;;
21645;SDS011;10984;45.712;4.800;2022-10-28T14:00:54;7.22;;;2.38;;
21645;SDS011;10984;45.712;4.800;2022-10-28T14:03:22;7.38;;;2.90;;
21645;SDS011;10984;45.712;4.800;2022-10-28T14:05:52;8.30;;;2.90;;
21645;SDS011;10984;45.712;4.800;2022-10-28T14:11:07;6.95;;;3.30;;
21645;SDS011;10984;45.712;4.800;2022-10-28T14:13:37;8.45;;;2.92;;
21645;SDS011;10984;45.712;4.800;2022-10-28T14:18:59;10.10;;;3.28;;
21645;SDS011;10984;45.712;4.800;2022-10-28T14:49:37;10.95;;;2.88;;
21645;SDS011;10984;45.712;4.800;2022-10-28T14:52:06;7.55;;;3.10;;
21645;SDS011;10984;45.712;4.800;2022-10-28T14:54:52;7.72;;;2.47;;
21645;SDS011;10984;45.712;4.800;2022-10-28T14:57:25;6.75;;;2.85;;
21645;SDS011;10984;45.712;4.800;2022-10-28T14:59:52;11.93;;;2.70;;
21645;SDS011;10984;45.712;4.800;2022-10-28T15:07:53;5.25;;;2.58;;
21645;SDS011;10984;45.712;4.800;2022-10-28T15:10:25;6.78;;;3.05;;
21645;SDS011;10984;45.712;4.800;2022-10-28T15:13:11;5.85;;;2.65;;
21645;SDS011;10984;45.712;4.800;2022-10-28T15:15:50;8.75;;;2.60;;
21645;SDS011;10984;45.712;4.800;2022-10-28T15:18:21;9.10;;;2.92;;
21645;SDS011;10984;45.712;4.800;2022-10-28T15:20:49;11.98;;;3.25;;
21645;SDS011;10984;45.712;4.800;2022-10-28T15:26:53;10.13;;;2.28;;
21645;SDS011;10984;45.712;4.800;2022-10-28T15:29:19;8.77;;;2.28;;
21645;SDS011;10984;45.712;4.800;2022-10-28T15:34:49;10.00;;;2.72;;
21645;SDS011;10984;45.712;4.800;2022-10-28T15:37:15;8.70;;;2.42;;
21645;SDS011;10984;45.712;4.800;2022-10-28T15:39:42;6.47;;;2.53;;
21645;SDS011;10984;45.712;4.800;2022-10-28T15:47:59;9.07;;;3.15;;
21645;SDS011;10984;45.712;4.800;2022-10-28T15:50:35;5.85;;;2.70;;
21645;SDS011;10984;45.712;4.800;2022-10-28T15:55:47;6.05;;;2.42;;
21645;SDS011;10984;45.712;4.800;2022-10-28T16:01:53;6.68;;;2.50;;
21645;SDS011;10984;45.712;4.800;2022-10-28T16:06:47;11.63;;;3.42;;
21645;SDS011;10984;45.712;4.800;2022-10-28T16:17:37;9.02;;;2.60;;
21645;SDS011;10984;45.712;4.800;2022-10-28T16:22:53;11.75;;;2.90;;
21645;SDS011;10984;45.712;4.800;2022-10-28T16:25:20;14.60;;;2.95;;
21645;SDS011;10984;45.712;4.800;2022-10-28T16:27:49;10.07;;;3.20;;
21645;SDS011;10984;45.712;4.800;2022-10-28T16:30:15;6.15;;;2.42;;
21645;SDS011;10984;45.712;4.800;2022-10-28T16:35:26;7.97;;;2.65;;
21645;SDS011;10984;45.712;4.800;2022-10-28T16:37:53;8.88;;;2.70;;
21645;SDS011;10984;45.712;4.800;2022-10-28T16:40:18;8.40;;;3.38;;
21645;SDS011;10984;45.712;4.800;2022-10-28T16:42:44;10.25;;;3.85;;
21645;SDS011;10984;45.712;4.800;2022-10-28T16:47:54;13.77;;;3.25;;
21645;SDS011;10984;45.712;4.800;2022-10-28T16:50:20;12.52;;;3.45;;
21645;SDS011;10984;45.712;4.800;2022-10-28T16:52:46;8.65;;;2.95;;
21645;SDS011;10984;45.712;4.800;2022-10-28T16:57:56;9.90;;;2.60;;
21645;SDS011;10984;45.712;4.800;2022-10-28T17:00:21;8.65;;;2.95;;
21645;SDS011;10984;45.712;4.800;2022-10-28T17:02:47;9.00;;;3.05;;
21645;SDS011;10984;45.712;4.800;2022-10-28T17:07:58;7.20;;;3.22;;
21645;SDS011;10984;45.712;4.800;2022-10-28T17:10:24;11.02;;;3.28;;
21645;SDS011;10984;45.712;4.800;2022-10-28T17:12:51;8.95;;;3.60;;
21645;SDS011;10984;45.712;4.800;2022-10-28T17:15:17;12.52;;;4.10;;
21645;SDS011;10984;45.712;4.800;2022-10-28T17:17:43;8.48;;;3.33;;
21645;SDS011;10984;45.712;4.800;2022-10-28T17:20:12;11.13;;;3.42;;
21645;SDS011;10984;45.712;4.800;2022-10-28T17:22:38;12.63;;;3.95;;
21645;SDS011;10984;45.712;4.800;2022-10-28T17:25:04;8.43;;;2.90;;
21645;SDS011;10984;45.712;4.800;2022-10-28T17:27:31;6.45;;;2.90;;
21645;SDS011;10984;45.712;4.800;2022-10-28T17:29:57;10.10;;;3.25;;
21645;SDS011;10984;45.712;4.800;2022-10-28T17:32:22;6.57;;;3.50;;
21645;SDS011;10984;45.712;4.800;2022-10-28T17:34:48;7.32;;;3.35;;
21645;SDS011;10984;45.712;4.800;2022-10-28T17:37:14;10.23;;;3.70;;
21645;SDS011;10984;45.712;4.800;2022-10-28T17:39:40;7.20;;;3.10;;
21645;SDS011;10984;45.712;4.800;2022-10-28T17:42:06;6.20;;;3.05;;
21645;SDS011;10984;45.712;4.800;2022-10-28T17:44:32;12.88;;;3.40;;
21645;SDS011;10984;45.712;4.800;2022-10-28T17:46:58;11.13;;;3.28;;
21645;SDS011;10984;45.712;4.800;2022-10-28T17:49:24;10.50;;;3.90;;
21645;SDS011;10984;45.712;4.800;2022-10-28T17:51:50;18.45;;;4.80;;
21645;SDS011;10984;45.712;4.800;2022-10-28T17:54:15;8.10;;;3.10;;
21645;SDS011;10984;45.712;4.800;2022-10-28T17:56:41;7.22;;;2.95;;
21645;SDS011;10984;45.712;4.800;2022-10-28T17:59:07;9.98;;;2.92;;
21645;SDS011;10984;45.712;4.800;2022-10-28T18:01:33;7.35;;;2.97;;
21645;SDS011;10984;45.712;4.800;2022-10-28T18:03:59;10.70;;;3.53;;
21645;SDS011;10984;45.712;4.800;2022-10-28T18:06:25;6.97;;;3.65;;
21645;SDS011;10984;45.712;4.800;2022-10-28T18:08:51;12.10;;;3.97;;
21645;SDS011;10984;45.712;4.800;2022-10-28T18:11:17;11.43;;;3.92;;
21645;SDS011;10984;45.712;4.800;2022-10-28T18:13:44;8.63;;;2.78;;
21645;SDS011;10984;45.712;4.800;2022-10-28T18:19:01;6.60;;;2.88;;
21645;SDS011;10984;45.712;4.800;2022-10-28T18:21:28;7.60;;;2.72;;
21645;SDS011;10984;45.712;4.800;2022-10-28T18:23:53;8.85;;;3.20;;
21645;SDS011;10984;45.712;4.800;2022-10-28T18:26:27;10.38;;;3.03;;
21645;SDS011;10984;45.712;4.800;2022-10-28T18:28:54;7.38;;;3.15;;
21645;SDS011;10984;45.712;4.800;2022-10-28T18:31:20;7.45;;;3.38;;
21645;SDS011;10984;45.712;4.800;2022-10-28T18:33:47;8.77;;;2.88;;
21645;SDS011;10984;45.712;4.800;2022-10-28T18:38:59;9.30;;;2.78;;
21645;SDS011;10984;45.712;4.800;2022-10-28T18:41:27;9.68;;;3.10;;
21645;SDS011;10984;45.712;4.800;2022-10-28T18:43:54;11.45;;;3.40;;
21645;SDS011;10984;45.712;4.800;2022-10-28T18:46:21;5.65;;;2.80;;
21645;SDS011;10984;45.712;4.800;2022-10-28T18:48:47;8.48;;;3.33;;
21645;SDS011;10984;45.712;4.800;2022-10-28T18:51:13;12.45;;;3.33;;
21645;SDS011;10984;45.712;4.800;2022-10-28T18:53:40;8.02;;;2.90;;
21645;SDS011;10984;45.712;4.800;2022-10-28T18:59:10;8.80;;;2.42;;
21645;SDS011;10984;45.712;4.800;2022-10-28T19:01:36;9.55;;;3.53;;
21645;SDS011;10984;45.712;4.800;2022-10-28T19:04:02;12.38;;;3.15;;
21645;SDS011;10984;45.712;4.800;2022-10-28T19:06:30;6.63;;;3.05;;
21645;SDS011;10984;45.712;4.800;2022-10-28T19:08:57;9.48;;;3.20;;
21645;SDS011;10984;45.712;4.800;2022-10-28T19:11:25;8.75;;;3.20;;
21645;SDS011;10984;45.712;4.800;2022-10-28T19:13:54;7.75;;;2.42;;
21645;SDS011;10984;45.712;4.800;2022-10-28T19:16:21;6.88;;;2.60;;
21645;SDS011;10984;45.712;4.800;2022-10-28T19:18:47;7.47;;;2.55;;
21645;SDS011;10984;45.712;4.800;2022-10-28T19:21:14;9.63;;;3.35;;
21645;SDS011;10984;45.712;4.800;2022-10-28T19:23:41;6.30;;;2.83;;
21645;SDS011;10984;45.712;4.800;2022-10-28T19:26:07;8.68;;;3.15;;
21645;SDS011;10984;45.712;4.800;2022-10-28T19:31:19;7.97;;;2.30;;
21645;SDS011;10984;45.712;4.800;2022-10-28T19:33:47;8.52;;;3.25;;
21645;SDS011;10984;45.712;4.800;2022-10-28T19:38:57;8.95;;;2.65;;
21645;SDS011;10984;45.712;4.800;2022-10-28T19:41:24;8.75;;;3.10;;
21645;SDS011;10984;45.712;4.800;2022-10-28T19:43:51;6.13;;;2.95;;
21645;SDS011;10984;45.712;4.800;2022-10-28T19:46:18;7.00;;;2.83;;
21645;SDS011;10984;45.712;4.800;2022-10-28T19:48:46;9.38;;;3.03;;
21645;SDS011;10984;45.712;4.800;2022-10-28T19:51:14;9.95;;;3.85;;
21645;SDS011;10984;45.712;4.800;2022-10-28T19:53:59;9.52;;;2.72;;
21645;SDS011;10984;45.712;4.800;2022-10-28T19:56:26;8.13;;;2.60;;
21645;SDS011;10984;45.712;4.800;2022-10-28T19:58:54;8.73;;;3.28;;
21645;SDS011;10984;45.712;4.800;2022-10-28T20:01:22;10.00;;;3.28;;
21645;SDS011;10984;45.712;4.800;2022-10-28T20:03:49;8.05;;;2.90;;
21645;SDS011;10984;45.712;4.800;2022-10-28T20:06:16;4.68;;;2.20;;
21645;SDS011;10984;45.712;4.800;2022-10-28T20:08:44;6.30;;;2.70;;
21645;SDS011;10984;45.712;4.800;2022-10-28T20:11:11;7.20;;;2.63;;
21645;SDS011;10984;45.712;4.800;2022-10-28T20:13:41;7.05;;;2.53;;
21645;SDS011;10984;45.712;4.800;2022-10-28T20:18:55;14.43;;;3.78;;
21645;SDS011;10984;45.712;4.800;2022-10-28T20:21:23;10.40;;;3.78;;
21645;SDS011;10984;45.712;4.800;2022-10-28T20:23:50;10.13;;;3.83;;
21645;SDS011;10984;45.712;4.800;2022-10-28T20:26:18;6.75;;;2.67;;
21645;SDS011;10984;45.712;4.800;2022-10-28T20:28:44;9.73;;;3.90;;
21645;SDS011;10984;45.712;4.800;2022-10-28T20:31:10;9.60;;;2.92;;
21645;SDS011;10984;45.712;4.800;2022-10-28T20:39:16;11.07;;;3.33;;
21645;SDS011;10984;45.712;4.800;2022-10-28T20:41:45;8.20;;;3.15;;
21645;SDS011;10984;45.712;4.800;2022-10-28T20:44:12;9.50;;;3.33;;
21645;SDS011;10984;45.712;4.800;2022-10-28T20:46:38;10.00;;;3.40;;
21645;SDS011;10984;45.712;4.800;2022-10-28T20:49:04;9.88;;;3.40;;
21645;SDS011;10984;45.712;4.800;2022-10-28T20:51:30;16.52;;;4.15;;
21645;SDS011;10984;45.712;4.800;2022-10-28T20:53:56;9.38;;;3.33;;
21645;SDS011;10984;45.712;4.800;2022-10-28T20:56:24;10.80;;;3.80;;
21645;SDS011;10984;45.712;4.800;2022-10-28T20:58:52;10.00;;;3.58;;
21645;SDS011;10984;45.712;4.800;2022-10-28T21:01:23;11.23;;;3.80;;
21645;SDS011;10984;45.712;4.800;2022-10-28T21:06:36;16.25;;;4.70;;
21645;SDS011;10984;45.712;4.800;2022-10-28T21:09:02;11.15;;;3.75;;